createdAt,value
2019-03-04T00:01:14.772Z,22.78
2019-03-04T00:03:43.031Z,22.45
2019-03-04T00:06:11.311Z,23.03
2019-03-04T00:08:39.569Z,22.54
2019-03-04T00:11:07.973Z,23.18
2019-03-04T00:13:36.717Z,22.38
2019-03-04T00:16:05.052Z,22.62
2019-03-04T00:18:33.374Z,23.15
2019-03-04T00:21:01.668Z,23.28
2019-03-04T00:23:29.915Z,23.30
2019-03-04T00:25:58.204Z,22.29
2019-03-04T00:28:26.459Z,22.03
2019-03-04T00:30:54.813Z,22.62
2019-03-04T00:33:23.064Z,22.23
2019-03-04T00:35:51.341Z,23.23
2019-03-04T00:38:20.906Z,23.25
2019-03-04T00:40:49.823Z,22.57
2019-03-04T00:43:18.095Z,23.00
2019-03-04T00:45:46.825Z,22.40
2019-03-04T00:48:15.096Z,22.26
2019-03-04T00:50:43.352Z,22.76
2019-03-04T00:53:11.608Z,22.24
2019-03-04T00:55:39.882Z,23.64
2019-03-04T00:58:08.161Z,23.19
2019-03-04T01:00:36.920Z,24.04
2019-03-04T01:03:05.867Z,24.25
2019-03-04T01:05:34.113Z,23.51
2019-03-04T01:08:02.375Z,23.82
2019-03-04T01:10:30.646Z,23.84
2019-03-04T01:12:58.915Z,23.56
2019-03-04T01:15:27.187Z,23.04
2019-03-04T01:17:55.448Z,23.19
2019-03-04T01:20:23.747Z,22.57
2019-03-04T01:22:52.019Z,22.31
2019-03-04T01:25:20.770Z,22.02
2019-03-04T01:27:49.093Z,22.39
2019-03-04T01:30:19.960Z,23.07
2019-03-04T01:32:49.155Z,23.15
2019-03-04T01:35:17.482Z,22.57
2019-03-04T01:37:45.746Z,22.44
2019-03-04T01:40:19.512Z,22.85
2019-03-04T01:42:47.789Z,22.16
2019-03-04T01:45:17.481Z,22.25
2019-03-04T01:47:45.750Z,22.51
2019-03-04T01:50:16.649Z,22.17
2019-03-04T01:52:45.453Z,22.61
2019-03-04T01:55:15.738Z,22.45
2019-03-04T01:57:44.000Z,22.87
2019-03-04T02:00:15.461Z,22.29
2019-03-04T02:02:43.876Z,22.77
2019-03-04T02:05:12.211Z,23.54
2019-03-04T02:07:40.554Z,22.96
2019-03-04T02:10:14.289Z,22.52
2019-03-04T02:12:44.567Z,22.75
2019-03-04T02:15:14.677Z,23.07
2019-03-04T02:17:43.013Z,23.20
2019-03-04T02:20:16.994Z,22.81
2019-03-04T02:22:45.792Z,22.98
2019-03-04T02:25:16.516Z,23.25
2019-03-04T02:27:50.185Z,22.39
2019-03-04T02:30:24.348Z,22.87
2019-03-04T02:32:52.617Z,22.56
2019-03-04T02:35:20.959Z,22.90
2019-03-04T02:37:49.204Z,23.44
2019-03-04T02:40:17.506Z,22.45
2019-03-04T02:42:45.731Z,23.02
2019-03-04T02:45:16.937Z,23.00
2019-03-04T02:47:45.201Z,23.18
2019-03-04T02:50:13.622Z,23.06
2019-03-04T02:52:41.892Z,23.27
2019-03-04T02:55:10.231Z,22.66
2019-03-04T02:57:38.549Z,24.03
2019-03-04T03:00:09.996Z,22.94
2019-03-04T03:02:38.280Z,22.87
2019-03-04T03:05:07.977Z,23.11
2019-03-04T03:07:36.279Z,22.34
2019-03-04T03:10:07.590Z,23.51
2019-03-04T03:12:35.850Z,22.60
2019-03-04T03:15:11.777Z,23.68
2019-03-04T03:17:40.137Z,24.18
2019-03-04T03:20:10.930Z,25.12
2019-03-04T03:22:39.171Z,25.81
2019-03-04T03:25:14.882Z,24.38
2019-03-04T03:27:43.583Z,24.31
2019-03-04T03:30:20.355Z,24.17
2019-03-04T03:32:48.624Z,25.59
2019-03-04T03:35:16.861Z,24.63
2019-03-04T03:37:45.179Z,24.02
2019-03-04T03:40:18.038Z,24.65
2019-03-04T03:42:46.323Z,25.31
2019-03-04T03:45:15.129Z,24.61
2019-03-04T03:47:43.377Z,23.69
2019-03-04T03:50:14.233Z,24.14
2019-03-04T03:52:42.510Z,23.37
2019-03-04T03:55:12.306Z,24.10
2019-03-04T03:57:40.553Z,23.92
2019-03-04T04:00:17.820Z,24.32
2019-03-04T04:02:46.078Z,24.71
2019-03-04T04:05:14.432Z,24.33
2019-03-04T04:07:42.793Z,25.26
2019-03-04T04:10:13.188Z,23.46
2019-03-04T04:12:41.453Z,25.39
2019-03-04T04:15:11.940Z,25.24
2019-03-04T04:17:40.225Z,24.79
2019-03-04T04:20:09.806Z,24.40
2019-03-04T04:22:38.089Z,25.30
2019-03-04T04:25:07.828Z,23.77
2019-03-04T04:27:36.087Z,25.31
2019-03-04T04:30:14.697Z,22.39
2019-03-04T04:32:42.993Z,23.17
2019-03-04T04:35:11.324Z,22.72
2019-03-04T04:37:39.597Z,24.08
2019-03-04T04:40:10.204Z,24.07
2019-03-04T04:42:38.452Z,23.57
2019-03-04T04:45:08.161Z,23.53
2019-03-04T04:47:37.179Z,23.58
2019-03-04T04:50:08.869Z,25.23
2019-03-04T04:52:37.141Z,24.84
2019-03-04T04:55:06.466Z,23.78
2019-03-04T04:57:34.739Z,24.42
2019-03-04T05:00:02.989Z,24.46
2019-03-04T05:02:31.236Z,24.08
2019-03-04T05:04:59.577Z,24.39
2019-03-04T05:07:27.837Z,23.90
2019-03-04T05:09:56.112Z,23.56
2019-03-04T05:12:24.381Z,23.15
2019-03-04T05:14:52.649Z,23.96
2019-03-04T05:17:20.908Z,23.21
2019-03-04T05:19:49.175Z,23.90
2019-03-04T05:22:17.452Z,22.94
2019-03-04T05:24:45.720Z,23.05
2019-03-04T05:27:13.976Z,23.21
2019-03-04T05:29:42.388Z,22.81
2019-03-04T05:32:10.591Z,24.00
2019-03-04T05:34:38.864Z,22.61
2019-03-04T05:37:07.177Z,22.74
2019-03-04T05:39:35.393Z,22.93
2019-03-04T05:42:03.675Z,23.70
2019-03-04T05:44:31.925Z,23.12
2019-03-04T05:47:00.197Z,22.97
2019-03-04T05:49:28.451Z,23.08
2019-03-04T05:51:56.725Z,23.30
2019-03-04T05:54:25.021Z,22.50
2019-03-04T05:56:53.271Z,23.06
2019-03-04T05:59:21.538Z,22.74
2019-03-04T06:01:52.982Z,23.18
2019-03-04T06:04:21.266Z,23.11
2019-03-04T06:06:56.768Z,22.58
2019-03-04T06:09:25.041Z,23.23
2019-03-04T06:11:53.304Z,23.11
2019-03-04T06:14:21.581Z,23.04
2019-03-04T06:16:49.826Z,23.27
2019-03-04T06:19:18.088Z,23.64
2019-03-04T06:21:48.432Z,22.48
2019-03-04T06:24:16.700Z,22.20
2019-03-04T06:26:44.960Z,22.40
2019-03-04T06:29:13.216Z,23.67
2019-03-04T06:31:41.482Z,22.89
2019-03-04T06:34:09.769Z,23.08
2019-03-04T06:36:38.052Z,22.54
2019-03-04T06:39:06.915Z,23.30
2019-03-04T06:41:35.184Z,22.59
2019-03-04T06:44:03.457Z,21.20
2019-03-04T06:46:31.745Z,22.29
2019-03-04T06:49:00.009Z,23.26
2019-03-04T06:51:34.110Z,22.00
2019-03-04T06:54:11.433Z,22.76
2019-03-04T06:56:42.865Z,22.23
2019-03-04T06:59:23.450Z,20.84
2019-03-04T07:02:06.936Z,22.07
2019-03-04T07:04:47.436Z,21.23
2019-03-04T07:07:15.688Z,21.32
2019-03-04T07:09:44.216Z,21.64
2019-03-04T07:12:12.478Z,22.49
2019-03-04T07:14:40.749Z,21.74
2019-03-04T07:17:09.236Z,22.06
2019-03-04T07:19:38.293Z,21.42
2019-03-04T07:22:06.652Z,22.18
2019-03-04T07:24:35.013Z,22.22
2019-03-04T07:27:03.272Z,22.23
2019-03-04T07:29:31.525Z,22.51
2019-03-04T07:31:59.835Z,23.21
2019-03-04T07:34:28.073Z,22.62
2019-03-04T07:36:56.326Z,21.43
2019-03-04T07:39:24.591Z,21.40
2019-03-04T07:41:52.870Z,23.50
2019-03-04T07:44:21.221Z,22.56
2019-03-04T07:46:49.481Z,22.56
2019-03-04T07:49:17.755Z,22.41
2019-03-04T07:51:46.018Z,22.31
2019-03-04T07:54:14.948Z,22.46
2019-03-04T07:56:43.198Z,22.00
2019-03-04T07:59:11.483Z,22.55
2019-03-04T08:01:39.739Z,22.59
2019-03-04T08:04:08.018Z,21.78
2019-03-04T08:06:36.272Z,21.62
2019-03-04T08:09:28.542Z,22.74
2019-03-04T08:12:28.799Z,21.79
2019-03-04T08:14:57.076Z,21.42
2019-03-04T08:17:25.363Z,22.13
2019-03-04T08:19:53.782Z,21.57
2019-03-04T08:22:22.049Z,22.39
2019-03-04T08:24:50.319Z,23.63
2019-03-04T08:27:18.600Z,22.27
2019-03-04T08:29:46.971Z,22.80
2019-03-04T08:32:15.231Z,21.81
2019-03-04T08:34:43.486Z,22.06
2019-03-04T08:37:11.759Z,22.28
2019-03-04T08:39:40.030Z,22.53
2019-03-04T08:42:08.297Z,23.60
2019-03-04T08:44:36.556Z,22.25
2019-03-04T08:47:04.825Z,22.17
2019-03-04T08:49:33.088Z,22.64
2019-03-04T08:52:01.346Z,21.55
2019-03-04T08:54:29.959Z,35.26
2019-03-04T09:09:17.204Z,35.26
